Time;durP1;ratioP1;P1;durP2;ratioP2;P2;SDS_P1;SDS_P2;PMS_P1;PMS_P2;Temp;Humidity;BMP_temperature;BMP_pressure;BME280_temperature;BME280_humidity;BME280_pressure;Samples;Min_cycle;Max_cycle;Signal;HPM_P1;HPM_P2
2023/08/26 00:02:08;;;;;;;;;;;;;;;;;;6262124;22;19958;-88
2023/08/26 00:04:34;;;;;;;;;;;;;;;;;;6260887;22;19967;-88
2023/08/26 00:07:00;;;;;;;;;;;;;;;;;;6267251;22;20008;-88
2023/08/26 00:09:26;;;;;;;;;;;;;;;;;;6236232;22;19924;-89
2023/08/26 00:11:52;;;;;;;;;;;;;;;;;;6239138;22;19922;-88
2023/08/26 00:14:18;;;;;;;;;;;;;;;;;;6265020;22;19923;-88
2023/08/26 00:16:44;;;;;;;;;;;;;;;;;;6262607;22;19916;-88
2023/08/26 00:19:10;;;;;;;;;;;;;;;;;;6265349;22;19919;-88
2023/08/26 00:21:38;;;;;;;;;;;;;;;;;;6262720;22;19919;-88
2023/08/26 00:24:04;;;;;;;;;;;;;;;;;;6240572;22;20244;-88
2023/08/26 00:26:30;;;;;;;;;;;;;;;;;;6237821;22;19920;-88
2023/08/26 00:28:56;;;;;;;;;;;;;;;;;;6238498;22;19931;-88
2023/08/26 00:31:22;;;;;;;;;;;;;;;;;;6237648;22;19998;-87
2023/08/26 00:33:48;;;;;;;;;;;;;;;;;;6263132;22;19984;-88
2023/08/26 00:36:14;;;;;;;;;;;;;;;;;;6239819;22;20346;-88
2023/08/26 00:38:40;;;;;;;;;;;;;;;;;;6237244;22;19923;-88
2023/08/26 00:41:06;;;;;;;;;;;;;;;;;;6238770;22;20372;-88
2023/08/26 00:43:33;;;;;;;;;;;;;;;;;;6262921;22;20307;-88
2023/08/26 00:45:59;;;;;;;;;;;;;;;;;;6264810;22;19919;-88
2023/08/26 00:48:25;;;;;;;;;;;;;;;;;;6238901;22;20221;-88
2023/08/26 00:50:51;;;;;;;;;;;;;;;;;;6263523;22;19926;-88
2023/08/26 00:53:17;;;;;;;;;;;;;;;;;;6239575;22;19919;-88
2023/08/26 00:55:43;;;;;;;;;;;;;;;;;;6260597;22;20332;-88
2023/08/26 00:58:09;;;;;;;;;;;;;;;;;;6239243;22;19919;-88
2023/08/26 01:00:36;;;;;;;;;;;;;;;;;;6238072;22;19950;-88
2023/08/26 01:03:02;;;;;;;;;;;;;;;;;;6238744;22;19965;-88
2023/08/26 01:05:28;;;;;;;;;;;;;;;;;;6262149;22;19927;-88
2023/08/26 01:07:54;;;;;;;;;;;;;;;;;;6266422;22;19923;-88
2023/08/26 01:10:25;;;;;;;;;;;;;;;;;;6240462;22;19919;-88
2023/08/26 01:12:51;;;;;;;;;;;;;;;;;;6265709;22;19955;-88
2023/08/26 01:15:17;;;;;;;;;;;;;;;;;;6240316;22;19919;-88
2023/08/26 01:17:46;;;;;;;;;;;;;;;;;;6239753;22;19920;-88
2023/08/26 01:20:12;;;;;;;;;;;;;;;;;;6266950;22;19919;-87
2023/08/26 01:22:38;;;;;;;;;;;;;;;;;;6240576;22;19926;-88
2023/08/26 01:25:04;;;;;;;;;;;;;;;;;;6239624;22;19926;-87
2023/08/26 01:27:30;;;;;;;;;;;;;;;;;;6236705;22;19926;-88
2023/08/26 01:29:56;;;;;;;;;;;;;;;;;;6237731;22;19924;-88
2023/08/26 01:32:22;;;;;;;;;;;;;;;;;;6236460;22;19951;-88
2023/08/26 01:34:48;;;;;;;;;;;;;;;;;;6239056;22;20344;-88
2023/08/26 01:37:14;;;;;;;;;;;;;;;;;;6264925;22;19934;-88
2023/08/26 01:39:40;;;;;;;;;;;;;;;;;;6261325;22;20566;-88
2023/08/26 01:42:06;;;;;;;;;;;;;;;;;;6264454;22;19942;-88
2023/08/26 01:44:32;;;;;;;;;;;;;;;;;;6235366;22;19926;-89
2023/08/26 01:46:58;;;;;;;;;;;;;;;;;;6239302;22;19964;-88
2023/08/26 01:49:24;;;;;;;;;;;;;;;;;;6237878;22;19988;-88
2023/08/26 01:51:52;;;;;;;;;;;;;;;;;;6264071;22;20235;-88
2023/08/26 01:54:19;;;;;;;;;;;;;;;;;;6265561;22;19919;-88
2023/08/26 01:56:45;;;;;;;;;;;;;;;;;;6264221;22;19919;-88
2023/08/26 01:59:14;;;;;;;;;;;;;;;;;;6237550;22;19919;-88
2023/08/26 02:01:39;;;;;;;;;;;;;;;;;;6262965;22;19924;-88
2023/08/26 02:04:06;;;;;;;;;;;;;;;;;;6264829;22;19919;-88
2023/08/26 02:06:42;;;;;;;;;;;;;;;;;;;;;
2023/08/26 02:09:21;;;;;;;;;;;;;;;;;;6263377;22;19972;-89
2023/08/26 02:11:47;;;;;;;;;;;;;;;;;;6239962;22;19922;-88
2023/08/26 02:14:13;;;;;;;;;;;;;;;;;;6239906;22;20312;-89
2023/08/26 02:16:39;;;;;;;;;;;;;;;;;;6238311;22;19919;-88
2023/08/26 02:19:11;;;;;;;;;;;;;;;;;;6265909;22;19919;-88
2023/08/26 02:21:37;;;;;;;;;;;;;;;;;;6262159;22;19915;-88
2023/08/26 02:24:06;;;;;;;;;;;;;;;;;;6241016;22;19939;-89
2023/08/26 02:26:32;;;;;;;;;;;;;;;;;;6263617;22;20022;-88
2023/08/26 02:28:58;;;;;;;;;;;;;;;;;;6239098;22;19951;-88
2023/08/26 02:31:24;;;;;;;;;;;;;;;;;;6236507;22;19941;-88
2023/08/26 02:33:50;;;;;;;;;;;;;;;;;;6240098;22;19997;-89
2023/08/26 02:36:16;;;;;;;;;;;;;;;;;;6237302;22;19919;-88
2023/08/26 02:38:42;;;;;;;;;;;;;;;;;;6262625;22;19972;-88
2023/08/26 02:41:08;;;;;;;;;;;;;;;;;;6238955;22;19919;-88
2023/08/26 02:43:34;;;;;;;;;;;;;;;;;;6237317;22;19919;-88
2023/08/26 02:46:00;;;;;;;;;;;;;;;;;;6263467;22;19915;-88
2023/08/26 02:48:26;;;;;;;;;;;;;;;;;;6235956;22;19923;-88
2023/08/26 02:50:52;;;;;;;;;;;;;;;;;;6262785;22;20366;-89
2023/08/26 02:53:18;;;;;;;;;;;;;;;;;;6263818;22;19919;-88
2023/08/26 02:55:44;;;;;;;;;;;;;;;;;;6261665;22;19920;-88
2023/08/26 02:58:10;;;;;;;;;;;;;;;;;;6262838;22;19926;-88
2023/08/26 03:00:36;;;;;;;;;;;;;;;;;;6235463;22;20446;-88
2023/08/26 03:03:05;;;;;;;;;;;;;;;;;;6263835;22;19930;-88
2023/08/26 03:05:34;;;;;;;;;;;;;;;;;;6236372;22;19952;-89
2023/08/26 03:08:00;;;;;;;;;;;;;;;;;;6237792;22;20018;-88
2023/08/26 03:10:26;;;;;;;;;;;;;;;;;;6237358;22;20296;-89
2023/08/26 03:12:52;;;;;;;;;;;;;;;;;;6264214;22;19919;-89
2023/08/26 03:20:30;;;;;;;;;;;;;;;;;;6209125;22;19919;-86
2023/08/26 03:22:56;;;;;;;;;;;;;;;;;;6238260;22;19973;-86
2023/08/26 03:25:22;;;;;;;;;;;;;;;;;;6237656;22;19934;-86
2023/08/26 03:27:48;;;;;;;;;;;;;;;;;;6240087;22;19923;-88
2023/08/26 03:33:18;;;;;;;;;;;;;;;;;;6275666;22;19973;-88
2023/08/26 03:35:44;;;;;;;;;;;;;;;;;;6262121;22;19923;-87
2023/08/26 03:38:10;;;;;;;;;;;;;;;;;;6237497;22;19997;-88
2023/08/26 03:40:42;;;;;;;;;;;;;;;;;;6263478;22;19926;-88
2023/08/26 03:43:08;;;;;;;;;;;;;;;;;;6239978;22;20217;-88
2023/08/26 03:45:34;;;;;;;;;;;;;;;;;;6262077;22;19934;-88
2023/08/26 03:48:01;;;;;;;;;;;;;;;;;;6237160;22;19919;-88
2023/08/26 03:50:27;;;;;;;;;;;;;;;;;;6259582;22;20221;-88
2023/08/26 03:59:15;;;;;;;;;;;;;;;;;;6231718;22;19984;-87
2023/08/26 04:01:41;;;;;;;;;;;;;;;;;;6260542;22;19926;-86
2023/08/26 04:04:07;;;;;;;;;;;;;;;;;;6237921;22;20244;-86
2023/08/26 04:06:33;;;;;;;;;;;;;;;;;;6260525;22;19923;-86
2023/08/26 04:09:02;;;;;;;;;;;;;;;;;;6263304;22;20186;-86
2023/08/26 04:11:28;;;;;;;;;;;;;;;;;;6260638;22;19934;-86
2023/08/26 04:13:54;;;;;;;;;;;;;;;;;;6236561;22;19915;-86
2023/08/26 04:16:21;;;;;;;;;;;;;;;;;;6236471;22;19923;-86
2023/08/26 04:18:47;;;;;;;;;;;;;;;;;;6264174;22;19919;-86
2023/08/26 04:21:13;;;;;;;;;;;;;;;;;;6262843;22;19930;-86
2023/08/26 04:23:39;;;;;;;;;;;;;;;;;;6234997;22;20349;-86
2023/08/26 04:26:05;;;;;;;;;;;;;;;;;;6235230;22;19969;-86
2023/08/26 04:28:31;;;;;;;;;;;;;;;;;;6234671;22;19915;-86
2023/08/26 04:30:59;;;;;;;;;;;;;;;;;;6262005;22;19994;-87
2023/08/26 04:33:25;;;;;;;;;;;;;;;;;;6259789;22;20408;-85
2023/08/26 04:35:51;;;;;;;;;;;;;;;;;;6262604;22;20270;-86
2023/08/26 04:38:17;;;;;;;;;;;;;;;;;;6234770;22;20336;-86
2023/08/26 04:40:43;;;;;;;;;;;;;;;;;;6260637;22;19919;-86
2023/08/26 04:43:10;;;;;;;;;;;;;;;;;;6236838;22;19919;-86
2023/08/26 04:45:36;;;;;;;;;;;;;;;;;;6260324;22;19934;-86
2023/08/26 04:48:02;;;;;;;;;;;;;;;;;;6263137;22;19986;-86
2023/08/26 04:50:28;;;;;;;;;;;;;;;;;;6234295;22;19954;-87
2023/08/26 04:52:54;;;;;;;;;;;;;;;;;;6237452;22;20436;-86
2023/08/26 04:55:20;;;;;;;;;;;;;;;;;;6236336;22;19919;-86
2023/08/26 05:00:56;;;;;;;;;;;;;;;;;;;;;
2023/08/26 05:03:37;;;;;;;;;;;;;;;;;;6265248;22;19919;-86
2023/08/26 05:06:06;;;;;;;;;;;;;;;;;;6242651;22;19919;-85
2023/08/26 05:08:32;;;;;;;;;;;;;;;;;;6266422;22;19926;-88
2023/08/26 05:10:58;;;;;;;;;;;;;;;;;;6241018;22;20005;-87
2023/08/26 05:13:24;;;;;;;;;;;;;;;;;;6242449;22;19950;-88
2023/08/26 05:15:50;;;;;;;;;;;;;;;;;;6269840;22;19918;-87
2023/08/26 05:18:16;;;;;;;;;;;;;;;;;;6243394;22;20023;-87
2023/08/26 05:20:42;;;;;;;;;;;;;;;;;;6243382;22;20467;-88
2023/08/26 05:23:08;;;;;;;;;;;;;;;;;;6244511;22;20740;-87
2023/08/26 05:28:10;;;;;;;;;;;;;;;;;;6294979;22;20281;-87
2023/08/26 05:30:45;;;;;;;;;;;;;;;;;;6242601;22;19925;-87
2023/08/26 05:33:11;;;;;;;;;;;;;;;;;;6244111;22;20003;-87
2023/08/26 05:35:36;;;;;;;;;;;;;;;;;;6268363;22;20434;-87
2023/08/26 05:41:28;;;;;;;;;;;;;;;;;;6182256;23;19952;-87
2023/08/26 05:44:10;;;;;;;;;;;;;;;;;;6166349;23;19916;-87
2023/08/26 05:46:36;;;;;;;;;;;;;;;;;;6145495;23;19948;-87
2023/08/26 05:49:02;;;;;;;;;;;;;;;;;;6198545;22;19918;-87
2023/08/26 05:51:28;;;;;;;;;;;;;;;;;;6241630;22;19925;-87
2023/08/26 05:53:54;;;;;;;;;;;;;;;;;;6269202;22;19922;-88
2023/08/26 05:56:20;;;;;;;;;;;;;;;;;;6270786;22;19915;-88
2023/08/26 05:58:46;;;;;;;;;;;;;;;;;;6242025;22;19926;-88
2023/08/26 06:01:12;;;;;;;;;;;;;;;;;;6244681;22;20362;-88
2023/08/26 06:03:38;;;;;;;;;;;;;;;;;;6242544;22;19919;-88
2023/08/26 06:06:05;;;;;;;;;;;;;;;;;;6242500;22;20347;-89
2023/08/26 06:08:34;;;;;;;;;;;;;;;;;;6242254;22;19919;-88
2023/08/26 06:11:00;;;;;;;;;;;;;;;;;;6270868;22;19945;-88
2023/08/26 06:13:28;;;;;;;;;;;;;;;;;;6243217;22;19914;-89
2023/08/26 06:15:54;;;;;;;;;;;;;;;;;;6244251;22;20297;-89
2023/08/26 06:18:20;;;;;;;;;;;;;;;;;;6265059;22;19965;-89
2023/08/26 06:20:55;;;;;;;;;;;;;;;;;;6245342;22;19946;-88
2023/08/26 06:23:24;;;;;;;;;;;;;;;;;;6241572;22;20240;-89
2023/08/26 06:25:50;;;;;;;;;;;;;;;;;;6245465;22;19933;-88
2023/08/26 06:28:16;;;;;;;;;;;;;;;;;;6269211;22;19993;-89
2023/08/26 06:30:51;;;;;;;;;;;;;;;;;;6245366;22;19995;-89
2023/08/26 06:33:17;;;;;;;;;;;;;;;;;;6243554;22;19953;-88
2023/08/26 06:35:47;;;;;;;;;;;;;;;;;;6268622;22;19919;-88
2023/08/26 06:38:13;;;;;;;;;;;;;;;;;;6244194;22;20330;-88
2023/08/26 06:40:39;;;;;;;;;;;;;;;;;;6267747;22;20402;-89
2023/08/26 06:43:05;;;;;;;;;;;;;;;;;;6269404;22;19949;-89
2023/08/26 06:45:31;;;;;;;;;;;;;;;;;;6266269;22;19949;-89
2023/08/26 06:47:57;;;;;;;;;;;;;;;;;;6268274;22;19918;-88
2023/08/26 06:50:23;;;;;;;;;;;;;;;;;;6267033;22;20389;-88
2023/08/26 06:52:49;;;;;;;;;;;;;;;;;;6268932;22;19919;-87
2023/08/26 06:55:18;;;;;;;;;;;;;;;;;;6268303;22;19941;-88
2023/08/26 06:57:44;;;;;;;;;;;;;;;;;;6266010;22;19923;-88
2023/08/26 07:00:10;;;;;;;;;;;;;;;;;;6243207;22;20657;-88
2023/08/26 07:02:36;;;;;;;;;;;;;;;;;;6268182;22;20343;-88
2023/08/26 07:05:02;;;;;;;;;;;;;;;;;;6241672;22;19938;-88
2023/08/26 07:07:28;;;;;;;;;;;;;;;;;;6294068;22;20553;-88
2023/08/26 07:09:54;;;;;;;;;;;;;;;;;;6240785;22;19984;-89
2023/08/26 07:12:23;;;;;;;;;;;;;;;;;;6268380;22;19980;-88
2023/08/26 07:14:49;;;;;;;;;;;;;;;;;;6267435;22;19919;-88
2023/08/26 07:17:17;;;;;;;;;;;;;;;;;;6243403;22;20254;-88
2023/08/26 07:19:43;;;;;;;;;;;;;;;;;;6241079;22;19919;-88
2023/08/26 07:22:09;;;;;;;;;;;;;;;;;;6267929;22;19930;-88
2023/08/26 07:24:37;;;;;;;;;;;;;;;;;;6265866;22;19950;-89
2023/08/26 07:27:06;;;;;;;;;;;;;;;;;;6261987;22;20390;-88
2023/08/26 07:29:32;;;;;;;;;;;;;;;;;;6236795;22;20009;-89
2023/08/26 07:31:58;;;;;;;;;;;;;;;;;;6263359;22;19964;-88
2023/08/26 07:34:24;;;;;;;;;;;;;;;;;;6234694;22;19994;-88
2023/08/26 07:36:51;;;;;;;;;;;;;;;;;;6237979;22;19927;-88
2023/08/26 07:39:18;;;;;;;;;;;;;;;;;;6265104;22;19982;-88
2023/08/26 07:41:44;;;;;;;;;;;;;;;;;;6234061;22;20291;-89
2023/08/26 07:44:10;;;;;;;;;;;;;;;;;;6237364;22;19923;-89
2023/08/26 07:46:36;;;;;;;;;;;;;;;;;;6261065;22;19954;-89
2023/08/26 07:49:02;;;;;;;;;;;;;;;;;;6237197;22;19994;-88
2023/08/26 07:51:28;;;;;;;;;;;;;;;;;;6234528;22;20408;-89
2023/08/26 07:54:04;;;;;;;;;;;;;;;;;;6264062;22;20122;-89
2023/08/26 07:56:40;;;;;;;;;;;;;;;;;;;;;
2023/08/26 07:59:09;;;;;;;;;;;;;;;;;;6262950;22;19983;-88
2023/08/26 08:01:35;;;;;;;;;;;;;;;;;;6233930;22;19919;-88
2023/08/26 08:04:01;;;;;;;;;;;;;;;;;;6264065;22;20056;-89
2023/08/26 08:06:27;;;;;;;;;;;;;;;;;;6263226;22;20077;-89
2023/08/26 08:08:52;;;;;;;;;;;;;;;;;;6238730;22;19915;-89
2023/08/26 08:11:18;;;;;;;;;;;;;;;;;;6238187;22;19915;-88
2023/08/26 08:13:44;;;;;;;;;;;;;;;;;;6235336;22;19969;-88
2023/08/26 08:16:10;;;;;;;;;;;;;;;;;;6236325;22;19955;-89
2023/08/26 08:18:36;;;;;;;;;;;;;;;;;;6234348;22;19923;-89
2023/08/26 08:21:04;;;;;;;;;;;;;;;;;;6237981;22;19919;-89
2023/08/26 08:23:30;;;;;;;;;;;;;;;;;;6236904;22;20022;-89
2023/08/26 08:25:56;;;;;;;;;;;;;;;;;;6235158;22;20005;-89
2023/08/26 08:28:22;;;;;;;;;;;;;;;;;;6235333;22;19969;-89
2023/08/26 08:30:48;;;;;;;;;;;;;;;;;;6237556;22;19919;-89
2023/08/26 08:33:14;;;;;;;;;;;;;;;;;;6262084;22;19923;-89
2023/08/26 08:35:40;;;;;;;;;;;;;;;;;;6261308;22;20359;-90
2023/08/26 08:38:06;;;;;;;;;;;;;;;;;;6235970;22;20323;-89
2023/08/26 08:40:32;;;;;;;;;;;;;;;;;;6235074;22;19919;-89
2023/08/26 08:42:58;;;;;;;;;;;;;;;;;;6262853;22;19933;-88
2023/08/26 08:45:24;;;;;;;;;;;;;;;;;;6258631;22;19926;-89
2023/08/26 08:47:50;;;;;;;;;;;;;;;;;;6265102;22;19935;-89
2023/08/26 08:50:16;;;;;;;;;;;;;;;;;;6238700;22;20704;-89
2023/08/26 08:52:42;;;;;;;;;;;;;;;;;;6262658;22;19926;-88
2023/08/26 08:58:13;;;;;;;;;;;;;;;;;;;;;
2023/08/26 09:00:42;;;;;;;;;;;;;;;;;;6238800;22;19985;-86
2023/08/26 09:03:08;;;;;;;;;;;;;;;;;;6238452;22;19923;-86
2023/08/26 09:05:34;;;;;;;;;;;;;;;;;;6263344;22;19919;-85
2023/08/26 09:08:00;;;;;;;;;;;;;;;;;;6240293;22;20239;-85
2023/08/26 09:10:26;;;;;;;;;;;;;;;;;;6237371;22;19965;-86
2023/08/26 09:12:52;;;;;;;;;;;;;;;;;;6265185;22;19923;-85
2023/08/26 09:15:18;;;;;;;;;;;;;;;;;;6239066;22;19973;-86
2023/08/26 09:47:38;;;;;;;;;;;;;;;;;;6304977;22;19961;-85
2023/08/26 09:50:05;;;;;;;;;;;;;;;;;;6249143;22;19969;-85
2023/08/26 09:52:35;;;;;;;;;;;;;;;;;;6245617;22;19922;-85
2023/08/26 09:55:01;;;;;;;;;;;;;;;;;;6248908;22;19994;-85
2023/08/26 09:57:31;;;;;;;;;;;;;;;;;;6274031;22;19950;-85
2023/08/26 10:00:15;;;;;;;;;;;;;;;;;;6272274;22;19999;-85
2023/08/26 10:08:50;;;;;;;;;;;;;;;;;;6310442;22;19978;-86
2023/08/26 10:11:25;;;;;;;;;;;;;;;;;;6277436;22;19961;-85
2023/08/26 10:13:51;;;;;;;;;;;;;;;;;;6272783;22;19923;-86
2023/08/26 10:16:19;;;;;;;;;;;;;;;;;;6249590;22;19963;-84
2023/08/26 10:25:13;;;;;;;;;;;;;;;;;;6325014;22;19918;-81
2023/08/26 10:27:39;;;;;;;;;;;;;;;;;;6302389;22;20813;-80
2023/08/26 10:30:05;;;;;;;;;;;;;;;;;;6302030;22;19918;-81
2023/08/26 10:32:30;;;;;;;;;;;;;;;;;;6301015;22;20334;-82
2023/08/26 10:34:57;;;;;;;;;;;;;;;;;;6274056;22;20307;-81
2023/08/26 10:37:23;;;;;;;;;;;;;;;;;;6300459;22;19993;-80
2023/08/26 10:39:48;;;;;;;;;;;;;;;;;;6301344;22;19961;-79
2023/08/26 10:42:16;;;;;;;;;;;;;;;;;;6300770;22;19918;-80
2023/08/26 10:44:42;;;;;;;;;;;;;;;;;;6301094;22;19919;-79
2023/08/26 10:47:08;;;;;;;;;;;;;;;;;;6248388;22;19949;-79
2023/08/26 10:49:35;;;;;;;;;;;;;;;;;;6302555;22;19919;-80
2023/08/26 10:52:01;;;;;;;;;;;;;;;;;;6302327;22;19953;-80
2023/08/26 10:54:27;;;;;;;;;;;;;;;;;;6301635;22;20289;-79
2023/08/26 10:56:53;;;;;;;;;;;;;;;;;;6302992;22;19957;-80
2023/08/26 10:59:19;;;;;;;;;;;;;;;;;;6274225;22;19995;-80
2023/08/26 11:01:46;;;;;;;;;;;;;;;;;;6300972;22;20331;-79
2023/08/26 11:04:12;;;;;;;;;;;;;;;;;;6303301;22;20005;-79
2023/08/26 11:06:39;;;;;;;;;;;;;;;;;;6300275;22;20335;-80
2023/08/26 11:09:05;;;;;;;;;;;;;;;;;;6300370;22;19980;-80
2023/08/26 11:11:31;;;;;;;;;;;;;;;;;;6299729;22;20017;-79
2023/08/26 11:13:57;;;;;;;;;;;;;;;;;;6300173;22;19953;-79
2023/08/26 11:16:23;;;;;;;;;;;;;;;;;;6271943;22;20409;-85
2023/08/26 11:18:49;;;;;;;;;;;;;;;;;;6300568;22;20304;-79
2023/08/26 11:21:15;;;;;;;;;;;;;;;;;;6301445;22;19977;-80
2023/08/26 11:23:41;;;;;;;;;;;;;;;;;;6300549;22;19915;-80
2023/08/26 11:26:07;;;;;;;;;;;;;;;;;;6271478;22;19922;-79
2023/08/26 11:28:33;;;;;;;;;;;;;;;;;;6302298;22;19923;-79
2023/08/26 11:30:59;;;;;;;;;;;;;;;;;;6273681;22;19930;-79
2023/08/26 11:33:26;;;;;;;;;;;;;;;;;;6299759;22;20346;-84
2023/08/26 11:35:52;;;;;;;;;;;;;;;;;;6273904;22;20330;-83
2023/08/26 11:38:18;;;;;;;;;;;;;;;;;;6247069;22;19919;-80
2023/08/26 11:40:45;;;;;;;;;;;;;;;;;;6299326;22;19993;-82
2023/08/26 11:43:11;;;;;;;;;;;;;;;;;;6300575;22;19918;-79
2023/08/26 11:45:37;;;;;;;;;;;;;;;;;;6301133;22;19922;-79
2023/08/26 11:48:03;;;;;;;;;;;;;;;;;;6300508;22;19923;-80
2023/08/26 11:50:29;;;;;;;;;;;;;;;;;;6301121;22;19923;-80
2023/08/26 11:52:54;;;;;;;;;;;;;;;;;;6247509;22;20338;-80
2023/08/26 11:55:20;;;;;;;;;;;;;;;;;;6301446;22;20285;-83
2023/08/26 11:57:47;;;;;;;;;;;;;;;;;;6271542;22;19946;-80
2023/08/26 12:00:13;;;;;;;;;;;;;;;;;;6299093;22;19929;-79
2023/08/26 12:02:41;;;;;;;;;;;;;;;;;;6248925;22;20251;-93
2023/08/26 12:05:43;;;;;;;;;;;;;;;;;;;;;
2023/08/26 12:08:12;;;;;;;;;;;;;;;;;;6277557;22;19925;-94
2023/08/26 12:10:47;;;;;;;;;;;;;;;;;;6253401;22;19919;-94
2023/08/26 12:13:13;;;;;;;;;;;;;;;;;;6280877;22;20002;-92
2023/08/26 12:15:42;;;;;;;;;;;;;;;;;;6253367;22;19921;-93
2023/08/26 12:18:09;;;;;;;;;;;;;;;;;;6254057;22;20250;-92
2023/08/26 12:20:44;;;;;;;;;;;;;;;;;;6254928;22;19938;-93
2023/08/26 12:23:10;;;;;;;;;;;;;;;;;;6252717;22;19937;-91
2023/08/26 12:25:36;;;;;;;;;;;;;;;;;;6264793;22;20327;-80
2023/08/26 12:28:02;;;;;;;;;;;;;;;;;;6271306;22;19923;-80
2023/08/26 12:30:28;;;;;;;;;;;;;;;;;;6271213;22;19998;-79
2023/08/26 12:32:54;;;;;;;;;;;;;;;;;;6270427;22;19977;-81
2023/08/26 12:35:20;;;;;;;;;;;;;;;;;;6269722;22;19927;-82
2023/08/26 12:37:46;;;;;;;;;;;;;;;;;;6267874;22;19992;-79
2023/08/26 12:40:12;;;;;;;;;;;;;;;;;;6269332;22;19942;-79
2023/08/26 12:42:38;;;;;;;;;;;;;;;;;;6267751;22;19969;-80
2023/08/26 12:45:04;;;;;;;;;;;;;;;;;;6269992;22;19919;-81
2023/08/26 12:47:30;;;;;;;;;;;;;;;;;;6268090;22;19927;-80
2023/08/26 12:49:56;;;;;;;;;;;;;;;;;;6270025;22;19919;-81
2023/08/26 12:52:22;;;;;;;;;;;;;;;;;;6268412;22;20235;-80
2023/08/26 12:54:48;;;;;;;;;;;;;;;;;;6267348;22;19915;-78
2023/08/26 12:57:14;;;;;;;;;;;;;;;;;;6266585;22;19926;-78
2023/08/26 12:59:40;;;;;;;;;;;;;;;;;;6273975;22;19967;-80
2023/08/26 13:02:06;;;;;;;;;;;;;;;;;;6268108;22;20327;-80
2023/08/26 13:04:32;;;;;;;;;;;;;;;;;;6265480;22;19925;-80
2023/08/26 13:06:58;;;;;;;;;;;;;;;;;;6241595;22;20291;-80
2023/08/26 13:09:24;;;;;;;;;;;;;;;;;;6240708;22;19927;-79
2023/08/26 13:11:50;;;;;;;;;;;;;;;;;;6269836;22;19919;-81
2023/08/26 13:14:16;;;;;;;;;;;;;;;;;;6269148;22;20003;-80
2023/08/26 13:16:42;;;;;;;;;;;;;;;;;;6269200;22;19919;-81
2023/08/26 13:19:08;;;;;;;;;;;;;;;;;;6269918;22;20351;-80
2023/08/26 13:21:34;;;;;;;;;;;;;;;;;;6269131;22;20239;-81
2023/08/26 13:24:00;;;;;;;;;;;;;;;;;;6268511;22;19984;-80
2023/08/26 13:26:26;;;;;;;;;;;;;;;;;;6266774;22;19923;-80
2023/08/26 13:28:52;;;;;;;;;;;;;;;;;;6265929;22;19919;-82
2023/08/26 13:31:24;;;;;;;;;;;;;;;;;;6239439;22;19919;-94
2023/08/26 13:34:03;;;;;;;;;;;;;;;;;;6247896;22;19920;-95
2023/08/26 13:36:36;;;;;;;;;;;;;;;;;;6244213;22;19919;-95
2023/08/26 13:39:13;;;;;;;;;;;;;;;;;;6248801;22;20009;-94
2023/08/26 13:41:42;;;;;;;;;;;;;;;;;;6247406;22;19947;-94
2023/08/26 13:44:19;;;;;;;;;;;;;;;;;;6274138;22;19989;-94
2023/08/26 13:46:45;;;;;;;;;;;;;;;;;;6245215;22;20313;-93
2023/08/26 13:49:11;;;;;;;;;;;;;;;;;;6246298;22;19919;-94
2023/08/26 13:51:37;;;;;;;;;;;;;;;;;;6248182;22;20247;-95
2023/08/26 13:54:03;;;;;;;;;;;;;;;;;;6247408;22;19947;-95
2023/08/26 13:56:37;;;;;;;;;;;;;;;;;;6245544;22;19930;-94
2023/08/26 13:59:06;;;;;;;;;;;;;;;;;;6244891;22;19994;-94
2023/08/26 14:01:32;;;;;;;;;;;;;;;;;;6245965;22;19919;-94
2023/08/26 14:03:58;;;;;;;;;;;;;;;;;;6244167;22;19919;-79
2023/08/26 14:06:24;;;;;;;;;;;;;;;;;;6243792;22;20002;-79
2023/08/26 14:08:50;;;;;;;;;;;;;;;;;;6269015;22;20374;-79
2023/08/26 14:11:16;;;;;;;;;;;;;;;;;;6242807;22;19919;-79
2023/08/26 14:13:42;;;;;;;;;;;;;;;;;;6243776;22;19957;-79
2023/08/26 14:16:08;;;;;;;;;;;;;;;;;;6268511;22;20288;-79
2023/08/26 14:18:34;;;;;;;;;;;;;;;;;;6269358;22;19919;-79
2023/08/26 14:21:00;;;;;;;;;;;;;;;;;;6242537;22;19995;-79
2023/08/26 14:23:26;;;;;;;;;;;;;;;;;;6270785;22;19919;-79
2023/08/26 14:25:52;;;;;;;;;;;;;;;;;;6283076;22;19971;-79
2023/08/26 14:28:18;;;;;;;;;;;;;;;;;;6246988;22;19926;-79
2023/08/26 14:30:44;;;;;;;;;;;;;;;;;;6270566;22;19919;-79
2023/08/26 14:33:10;;;;;;;;;;;;;;;;;;6272816;22;19993;-79
2023/08/26 14:35:36;;;;;;;;;;;;;;;;;;6272969;22;19953;-79
2023/08/26 14:38:02;;;;;;;;;;;;;;;;;;6275327;22;19922;-79
2023/08/26 14:40:28;;;;;;;;;;;;;;;;;;6272917;22;19923;-78
2023/08/26 14:42:53;;;;;;;;;;;;;;;;;;6248557;22;19921;-78
2023/08/26 14:45:19;;;;;;;;;;;;;;;;;;6244775;22;19938;-78
2023/08/26 14:47:46;;;;;;;;;;;;;;;;;;6247544;22;19918;-78
2023/08/26 14:50:12;;;;;;;;;;;;;;;;;;6273748;22;20588;-79
2023/08/26 14:52:38;;;;;;;;;;;;;;;;;;6272594;22;20448;-79
2023/08/26 14:55:04;;;;;;;;;;;;;;;;;;6248896;22;19919;-79
2023/08/26 14:57:30;;;;;;;;;;;;;;;;;;6273636;22;19923;-79
2023/08/26 14:59:55;;;;;;;;;;;;;;;;;;6247106;22;20351;-78
2023/08/26 15:02:21;;;;;;;;;;;;;;;;;;6272442;22;19919;-78
2023/08/26 15:04:47;;;;;;;;;;;;;;;;;;6247490;22;19933;-78
2023/08/26 15:07:13;;;;;;;;;;;;;;;;;;6272721;22;19919;-78
2023/08/26 15:09:39;;;;;;;;;;;;;;;;;;6274020;22;19934;-78
2023/08/26 15:12:05;;;;;;;;;;;;;;;;;;6249139;22;19926;-78
2023/08/26 15:14:31;;;;;;;;;;;;;;;;;;6275865;22;19919;-80
2023/08/26 15:16:57;;;;;;;;;;;;;;;;;;6247314;22;20243;-81
2023/08/26 15:19:23;;;;;;;;;;;;;;;;;;6272817;22;19919;-80
2023/08/26 15:21:49;;;;;;;;;;;;;;;;;;6247720;22;19919;-80
2023/08/26 15:24:15;;;;;;;;;;;;;;;;;;6273185;22;19946;-79
2023/08/26 15:26:41;;;;;;;;;;;;;;;;;;6270759;22;19962;-80
2023/08/26 15:29:07;;;;;;;;;;;;;;;;;;6273941;22;19965;-80
2023/08/26 15:31:33;;;;;;;;;;;;;;;;;;6247450;22;19988;-79
2023/08/26 15:33:59;;;;;;;;;;;;;;;;;;6273185;22;19927;-79
2023/08/26 15:36:25;;;;;;;;;;;;;;;;;;6247778;22;19915;-79
2023/08/26 15:38:51;;;;;;;;;;;;;;;;;;6273479;22;19967;-78
2023/08/26 15:41:17;;;;;;;;;;;;;;;;;;6273464;22;19919;-79
2023/08/26 15:43:43;;;;;;;;;;;;;;;;;;6272900;22;19929;-79
2023/08/26 15:46:09;;;;;;;;;;;;;;;;;;6266623;22;20387;-79
2023/08/26 15:48:34;;;;;;;;;;;;;;;;;;6272221;22;20250;-78
2023/08/26 15:51:00;;;;;;;;;;;;;;;;;;6242674;22;20277;-78
2023/08/26 15:53:27;;;;;;;;;;;;;;;;;;6271256;22;20287;-79
2023/08/26 15:55:53;;;;;;;;;;;;;;;;;;6244898;22;19921;-78
2023/08/26 15:58:21;;;;;;;;;;;;;;;;;;6275637;22;19919;-94
2023/08/26 16:00:48;;;;;;;;;;;;;;;;;;6248004;22;19921;-93
2023/08/26 16:03:22;;;;;;;;;;;;;;;;;;6249463;22;19919;-94
2023/08/26 16:05:48;;;;;;;;;;;;;;;;;;6248458;22;19919;-94
2023/08/26 16:08:14;;;;;;;;;;;;;;;;;;6275075;22;19926;-93
2023/08/26 16:10:40;;;;;;;;;;;;;;;;;;6248499;22;19925;-93
2023/08/26 16:13:06;;;;;;;;;;;;;;;;;;6246868;22;20022;-93
2023/08/26 16:15:32;;;;;;;;;;;;;;;;;;6247471;22;20519;-94
2023/08/26 16:18:01;;;;;;;;;;;;;;;;;;6247693;22;19922;-94
2023/08/26 16:20:27;;;;;;;;;;;;;;;;;;6247775;22;19919;-94
2023/08/26 16:22:55;;;;;;;;;;;;;;;;;;6274222;22;19922;-94
2023/08/26 16:25:21;;;;;;;;;;;;;;;;;;6243230;22;19923;-94
2023/08/26 16:27:48;;;;;;;;;;;;;;;;;;6240905;22;19931;-94
2023/08/26 16:30:14;;;;;;;;;;;;;;;;;;6244533;22;20040;-94
2023/08/26 16:32:42;;;;;;;;;;;;;;;;;;6242633;22;20351;-94
2023/08/26 16:35:09;;;;;;;;;;;;;;;;;;6245535;22;19929;-94
2023/08/26 16:37:35;;;;;;;;;;;;;;;;;;6239526;22;19915;-94
2023/08/26 16:40:01;;;;;;;;;;;;;;;;;;6243226;22;20292;-95
2023/08/26 16:42:29;;;;;;;;;;;;;;;;;;6243952;22;19962;-95
2023/08/26 16:44:58;;;;;;;;;;;;;;;;;;6249208;22;20314;-94
2023/08/26 16:47:25;;;;;;;;;;;;;;;;;;6241907;22;20329;-95
2023/08/26 16:49:51;;;;;;;;;;;;;;;;;;6243197;22;19934;-94
2023/08/26 16:52:19;;;;;;;;;;;;;;;;;;6241546;22;19915;-94
2023/08/26 16:54:45;;;;;;;;;;;;;;;;;;6241508;22;19919;-94
2023/08/26 16:57:11;;;;;;;;;;;;;;;;;;6242788;22;19924;-94
2023/08/26 16:59:37;;;;;;;;;;;;;;;;;;6243677;22;19922;-94
2023/08/26 17:02:03;;;;;;;;;;;;;;;;;;6243630;22;19969;-95
2023/08/26 17:04:35;;;;;;;;;;;;;;;;;;6239676;22;19923;-95
2023/08/26 17:07:08;;;;;;;;;;;;;;;;;;6239844;22;19923;-94
2023/08/26 17:09:38;;;;;;;;;;;;;;;;;;6271323;22;19915;-94
2023/08/26 17:12:04;;;;;;;;;;;;;;;;;;6244582;22;19997;-94
2023/08/26 17:14:30;;;;;;;;;;;;;;;;;;6270922;22;19955;-94
2023/08/26 17:17:00;;;;;;;;;;;;;;;;;;6270692;22;19942;-94
2023/08/26 17:19:26;;;;;;;;;;;;;;;;;;6243833;22;19925;-94
2023/08/26 17:21:55;;;;;;;;;;;;;;;;;;6244253;22;19989;-94
2023/08/26 17:24:21;;;;;;;;;;;;;;;;;;6269085;22;19950;-94
2023/08/26 17:26:52;;;;;;;;;;;;;;;;;;6243712;22;19973;-95
2023/08/26 17:32:11;;;;;;;;;;;;;;;;;;6246628;22;19959;-94
2023/08/26 17:34:43;;;;;;;;;;;;;;;;;;6244663;22;19950;-95
2023/08/26 17:37:16;;;;;;;;;;;;;;;;;;6243074;22;19920;-93
2023/08/26 17:39:45;;;;;;;;;;;;;;;;;;6247225;22;19919;-96
2023/08/26 17:42:11;;;;;;;;;;;;;;;;;;6248403;22;20350;-94
2023/08/26 17:44:37;;;;;;;;;;;;;;;;;;6249821;22;20342;-94
2023/08/26 17:47:13;;;;;;;;;;;;;;;;;;6247135;22;20299;-94
2023/08/26 17:49:42;;;;;;;;;;;;;;;;;;6246397;22;19923;-94
2023/08/26 17:52:08;;;;;;;;;;;;;;;;;;6250144;22;19990;-94
2023/08/26 17:54:36;;;;;;;;;;;;;;;;;;6248823;22;19922;-93
2023/08/26 17:57:03;;;;;;;;;;;;;;;;;;6245816;22;19919;-93
2023/08/26 17:59:36;;;;;;;;;;;;;;;;;;6244456;22;19919;-94